Time,TemperatureF,DewpointF,PressureIn,WindDirection,WindDirectionDegrees,WindSpeedMPH,WindSpeedGustMPH,Humidity,HourlyPrecipIn,Conditions,Clouds,dailyrainin,SoftwareType,DateUTC
2013-06-13 00:00:00,59.1,55.9,29.77,NE,35,0.0,0.0,88,0.00,n/a,n/a,-99.99,Henriksen +1-Wire,2013-06-13 04:00:00,
2013-06-13 00:01:00,59.1,55.9,29.77,ESE,121,0.0,0.0,88,0.00,n/a,n/a,-99.99,Henriksen +1-Wire,2013-06-13 04:01:00,
2013-06-13 00:02:00,59.1,55.9,29.77,South,183,0.0,0.0,89,0.00,n/a,n/a,-99.99,Henriksen +1-Wire,2013-06-13 04:02:00,
2013-06-13 00:05:00,59.0,55.8,29.77,North,349,0.0,0.0,89,0.00,n/a,n/a,-99.99,Henriksen +1-Wire,2013-06-13 04:05:00,
2013-06-13 00:10:00,58.8,55.6,29.77,ENE,63,0.0,0.0,89,0.00,n/a,n/a,-99.99,Henriksen +1-Wire,2013-06-13 04:10:00,
2013-06-13 00:13:00,58.6,55.5,29.77,ENE,60,0.0,0.0,89,0.00,n/a,n/a,-99.99,Henriksen +1-Wire,2013-06-13 04:13:00,
2013-06-13 00:14:00,58.5,55.5,29.77,ENE,60,0.0,0.0,89,0.00,n/a,n/a,-99.99,Henriksen +1-Wire,2013-06-13 04:14:00,
2013-06-13 00:19:00,58.2,55.5,29.77,NE,47,0.0,0.0,90,0.00,n/a,n/a,-99.99,Henriksen +1-Wire,2013-06-13 04:19:00,
2013-06-13 00:25:00,57.8,55.6,29.77,NE,48,0.0,1.2,92,0.00,n/a,n/a,-99.99,Henriksen +1-Wire,2013-06-13 04:25:00,
2013-06-13 00:31:00,57.4,55.6,29.77,North,352,0.5,1.6,93,0.00,n/a,n/a,-99.99,Henriksen +1-Wire,2013-06-13 04:31:00,
2013-06-13 00:36:00,57.3,55.6,29.76,North,3,0.6,2.4,93,0.00,n/a,n/a,-99.99,Henriksen +1-Wire,2013-06-13 04:36:00,
2013-06-13 00:41:00,57.1,55.4,29.76,NNE,25,0.0,2.4,94,0.00,n/a,n/a,-99.99,Henriksen +1-Wire,2013-06-13 04:41:00,
2013-06-13 00:46:00,56.9,55.4,29.76,North,5,0.0,0.3,94,0.00,n/a,n/a,-99.99,Henriksen +1-Wire,2013-06-13 04:46:00,
2013-06-13 00:51:00,56.8,55.4,29.76,North,6,0.0,0.0,94,0.00,n/a,n/a,-99.99,Henriksen +1-Wire,2013-06-13 04:51:00,
2013-06-13 00:56:00,56.7,55.3,29.76,North,356,0.0,0.0,94,0.00,n/a,n/a,-99.99,Henriksen +1-Wire,2013-06-13 04:56:00,
2013-06-13 01:01:00,56.6,55.2,29.76,NNE,33,0.0,0.0,95,0.00,n/a,n/a,-99.99,Henriksen +1-Wire,2013-06-13 05:01:00,
2013-06-13 01:06:00,56.4,55.3,29.76,NNE,16,0.0,0.0,95,0.00,n/a,n/a,-99.99,Henriksen +1-Wire,2013-06-13 05:06:00,
2013-06-13 01:11:00,56.3,55.3,29.76,NE,49,0.0,0.0,96,0.00,n/a,n/a,-99.99,Henriksen +1-Wire,2013-06-13 05:11:00,
2013-06-13 01:16:00,56.1,55.2,29.76,NE,56,0.0,0.0,96,0.00,n/a,n/a,-99.99,Henriksen +1-Wire,2013-06-13 05:16:00,
2013-06-13 01:21:00,56.0,55.2,29.76,NNE,29,0.0,0.0,97,0.00,n/a,n/a,-99.99,Henriksen +1-Wire,2013-06-13 05:21:00,
2013-06-13 01:26:00,55.8,55.0,29.76,NE,37,0.0,0.0,97,0.00,n/a,n/a,-99.99,Henriksen +1-Wire,2013-06-13 05:26:00,
2013-06-13 01:31:00,55.6,54.9,29.76,NW,321,0.0,0.0,97,0.00,n/a,n/a,-99.99,Henriksen +1-Wire,2013-06-13 05:31:00,
2013-06-13 01:36:00,55.5,55.0,29.76,SE,127,0.0,0.0,98,0.00,n/a,n/a,-99.99,Henriksen +1-Wire,2013-06-13 05:36:00,
2013-06-13 01:41:00,55.3,54.9,29.76,South,175,0.0,0.0,98,0.00,n/a,n/a,-99.99,Henriksen +1-Wire,2013-06-13 05:41:00,
2013-06-13 01:46:00,55.1,54.8,29.76,SE,143,0.0,0.0,98,0.00,n/a,n/a,-99.99,Henriksen +1-Wire,2013-06-13 05:46:00,
2013-06-13 01:51:00,55.0,54.7,29.76,South,189,0.0,0.0,98,0.00,n/a,n/a,-99.99,Henriksen +1-Wire,2013-06-13 05:51:00,
2013-06-13 01:56:00,54.8,54.5,29.76,South,177,0.0,0.0,99,0.00,n/a,n/a,-99.99,Henriksen +1-Wire,2013-06-13 05:56:00,
2013-06-13 02:01:00,54.7,54.4,29.76,SE,134,0.0,0.0,99,0.00,n/a,n/a,-99.99,Henriksen +1-Wire,2013-06-13 06:01:00,
2013-06-13 02:06:00,54.5,54.4,29.76,SE,124,0.0,0.0,99,0.00,n/a,n/a,-99.99,Henriksen +1-Wire,2013-06-13 06:06:00,
2013-06-13 02:11:00,54.4,54.4,29.76,ENE,72,0.0,0.0,99,0.00,n/a,n/a,-99.99,Henriksen +1-Wire,2013-06-13 06:11:00,
2013-06-13 02:16:00,54.3,54.3,29.76,ENE,66,0.0,0.0,99,0.00,n/a,n/a,-99.99,Henriksen +1-Wire,2013-06-13 06:16:00,
2013-06-13 02:22:00,54.2,54.2,29.76,NNE,20,0.0,0.0,99,0.00,n/a,n/a,-99.99,Henriksen +1-Wire,2013-06-13 06:22:00,
2013-06-13 02:28:00,54.1,54.1,29.76,NNE,27,0.0,0.0,99,0.00,n/a,n/a,-99.99,Henriksen +1-Wire,2013-06-13 06:28:00,
2013-06-13 02:33:00,54.1,54.0,29.75,NE,45,0.0,0.0,100,0.00,n/a,n/a,-99.99,Henriksen +1-Wire,2013-06-13 06:33:00,
2013-06-13 02:38:00,54.0,54.0,29.75,NE,37,0.0,0.0,100,0.00,n/a,n/a,-99.99,Henriksen +1-Wire,2013-06-13 06:38:00,
2013-06-13 02:43:00,53.9,53.9,29.76,North,10,0.0,0.0,100,0.00,n/a,n/a,-99.99,Henriksen +1-Wire,2013-06-13 06:43:00,
2013-06-13 02:48:00,53.9,53.9,29.76,NNE,19,0.0,0.0,100,0.00,n/a,n/a,-99.99,Henriksen +1-Wire,2013-06-13 06:48:00,
2013-06-13 02:53:00,53.8,53.8,29.76,NE,53,0.0,0.0,100,0.00,n/a,n/a,-99.99,Henriksen +1-Wire,2013-06-13 06:53:00,
2013-06-13 02:58:00,53.7,53.7,29.76,NE,51,0.0,0.0,100,0.00,n/a,n/a,-99.99,Henriksen +1-Wire,2013-06-13 06:58:00,
2013-06-13 03:04:00,53.6,53.6,29.76,ENE,60,0.0,0.0,100,0.00,n/a,n/a,-99.99,Henriksen +1-Wire,2013-06-13 07:04:00,
2013-06-13 03:09:00,53.5,53.5,29.76,NE,54,0.0,0.0,100,0.00,n/a,n/a,-99.99,Henriksen +1-Wire,2013-06-13 07:09:00,
2013-06-13 03:15:00,53.5,53.5,29.76,NE,53,0.0,0.0,100,0.00,n/a,n/a,-99.99,Henriksen +1-Wire,2013-06-13 07:15:00,
2013-06-13 03:20:00,53.4,53.4,29.76,NW,325,0.0,0.0,100,0.00,n/a,n/a,-99.99,Henriksen +1-Wire,2013-06-13 07:20:00,
2013-06-13 03:26:00,53.4,53.4,29.77,SSE,148,0.0,0.0,100,0.00,n/a,n/a,-99.99,Henriksen +1-Wire,2013-06-13 07:26:00,
2013-06-13 03:31:00,53.2,53.2,29.76,ESE,119,0.0,0.0,100,0.00,n/a,n/a,-99.99,Henriksen +1-Wire,2013-06-13 07:31:00,
2013-06-13 03:36:00,53.1,53.1,29.76,ESE,102,0.0,0.0,100,0.00,n/a,n/a,-99.99,Henriksen +1-Wire,2013-06-13 07:36:00,
2013-06-13 03:42:00,52.9,52.9,29.75,ENE,59,0.0,0.0,100,0.00,n/a,n/a,-99.99,Henriksen +1-Wire,2013-06-13 07:42:00,
2013-06-13 03:48:00,52.8,52.8,29.75,NE,49,0.0,0.0,100,0.00,n/a,n/a,-99.99,Henriksen +1-Wire,2013-06-13 07:48:00,
2013-06-13 03:53:00,52.7,52.7,29.76,NE,42,0.0,0.0,100,0.00,n/a,n/a,-99.99,Henriksen +1-Wire,2013-06-13 07:53:00,
2013-06-13 03:58:00,52.6,52.6,29.75,NE,43,0.0,0.0,100,0.00,n/a,n/a,-99.99,Henriksen +1-Wire,2013-06-13 07:58:00,
2013-06-13 04:03:00,52.6,52.6,29.75,NNE,29,0.0,0.0,100,0.00,n/a,n/a,-99.99,Henriksen +1-Wire,2013-06-13 08:03:00,
2013-06-13 04:08:00,52.6,52.6,29.75,NNE,27,0.0,0.0,100,0.00,n/a,n/a,-99.99,Henriksen +1-Wire,2013-06-13 08:08:00,
2013-06-13 04:13:00,52.6,52.6,29.76,North,351,0.0,0.0,100,0.00,n/a,n/a,-99.99,Henriksen +1-Wire,2013-06-13 08:13:00,
2013-06-13 04:18:00,52.7,52.7,29.76,NNW,329,1.2,2.4,100,0.00,n/a,n/a,-99.99,Henriksen +1-Wire,2013-06-13 08:18:00,
2013-06-13 04:23:00,52.7,52.7,29.76,NNW,338,0.0,2.4,100,0.00,n/a,n/a,-99.99,Henriksen +1-Wire,2013-06-13 08:23:00,
2013-06-13 04:28:00,52.7,52.7,29.76,NE,34,0.0,1.6,100,0.00,n/a,n/a,-99.99,Henriksen +1-Wire,2013-06-13 08:28:00,
2013-06-13 04:33:00,52.6,52.6,29.76,NE,44,0.0,0.0,100,0.00,n/a,n/a,-99.99,Henriksen +1-Wire,2013-06-13 08:33:00,
2013-06-13 04:39:00,52.5,52.5,29.76,NNE,24,0.0,0.0,100,0.00,n/a,n/a,-99.99,Henriksen +1-Wire,2013-06-13 08:39:00,
2013-06-13 04:45:00,52.5,52.5,29.76,West,281,0.0,0.0,100,0.00,n/a,n/a,-99.99,Henriksen +1-Wire,2013-06-13 08:45:00,
2013-06-13 04:50:00,52.5,52.5,29.76,NNE,27,0.0,0.0,100,0.00,n/a,n/a,-99.99,Henriksen +1-Wire,2013-06-13 08:50:00,
2013-06-13 04:55:00,52.4,52.4,29.76,ENE,77,0.0,0.0,100,0.00,n/a,n/a,-99.99,Henriksen +1-Wire,2013-06-13 08:55:00,
2013-06-13 05:00:00,52.3,52.3,29.76,ESE,114,0.0,0.0,100,0.00,n/a,n/a,-99.99,Henriksen +1-Wire,2013-06-13 09:00:00,
2013-06-13 05:05:00,52.3,52.3,29.76,NNE,31,0.4,1.6,100,0.00,n/a,n/a,-99.99,Henriksen +1-Wire,2013-06-13 09:05:00,
2013-06-13 05:10:00,52.2,52.2,29.77,NE,49,0.3,1.6,100,0.00,n/a,n/a,-99.99,Henriksen +1-Wire,2013-06-13 09:10:00,
2013-06-13 05:15:00,52.2,52.2,29.77,NNE,15,0.9,1.7,100,0.00,n/a,n/a,-99.99,Henriksen +1-Wire,2013-06-13 09:15:00,
2013-06-13 05:20:00,52.3,52.3,29.78,NNE,26,0.8,2.0,100,0.00,n/a,n/a,-99.99,Henriksen +1-Wire,2013-06-13 09:20:00,
2013-06-13 05:25:00,52.3,52.3,29.78,NNE,14,0.3,2.0,100,0.00,n/a,n/a,-99.99,Henriksen +1-Wire,2013-06-13 09:25:00,
2013-06-13 05:30:00,52.4,52.4,29.77,North,360,0.1,1.6,100,0.00,n/a,n/a,-99.99,Henriksen +1-Wire,2013-06-13 09:30:00,
2013-06-13 05:35:00,52.5,52.5,29.77,North,359,0.2,1.6,100,0.00,n/a,n/a,-99.99,Henriksen +1-Wire,2013-06-13 09:35:00,
2013-06-13 05:40:00,52.6,52.6,29.77,NW,325,0.0,1.6,100,0.00,n/a,n/a,-99.99,Henriksen +1-Wire,2013-06-13 09:40:00,
2013-06-13 05:46:00,52.7,52.7,29.77,NNW,344,0.0,1.6,100,0.00,n/a,n/a,-99.99,Henriksen +1-Wire,2013-06-13 09:46:00,
2013-06-13 05:51:00,52.8,52.8,29.78,NNE,15,0.0,1.6,100,0.00,n/a,n/a,-99.99,Henriksen +1-Wire,2013-06-13 09:51:00,
2013-06-13 05:56:00,52.9,52.9,29.78,NNE,31,0.0,0.0,100,0.00,n/a,n/a,-99.99,Henriksen +1-Wire,2013-06-13 09:56:00,
2013-06-13 06:01:00,53.0,53.0,29.78,North,355,0.0,0.0,100,0.00,n/a,n/a,-99.99,Henriksen +1-Wire,2013-06-13 10:01:00,
2013-06-13 06:06:00,53.0,53.0,29.78,NNE,28,0.0,0.0,100,0.00,n/a,n/a,-99.99,Henriksen +1-Wire,2013-06-13 10:06:00,
2013-06-13 06:11:00,53.1,53.1,29.78,NNE,13,0.0,0.0,100,0.00,n/a,n/a,-99.99,Henriksen +1-Wire,2013-06-13 10:11:00,
2013-06-13 06:16:00,53.3,53.3,29.78,North,2,0.9,2.4,100,0.00,n/a,n/a,-99.99,Henriksen +1-Wire,2013-06-13 10:16:00,
2013-06-13 06:22:00,53.5,53.5,29.78,NE,35,0.7,2.4,100,0.00,n/a,n/a,-99.99,Henriksen +1-Wire,2013-06-13 10:22:00,
2013-06-13 06:27:00,53.7,53.7,29.78,North,8,0.2,1.7,100,0.00,n/a,n/a,-99.99,Henriksen +1-Wire,2013-06-13 10:27:00,
2013-06-13 06:32:00,53.9,53.9,29.78,North,7,0.0,1.6,100,0.00,n/a,n/a,-99.99,Henriksen +1-Wire,2013-06-13 10:32:00,
2013-06-13 06:38:00,54.2,54.2,29.78,North,8,0.0,0.0,100,0.00,n/a,n/a,-99.99,Henriksen +1-Wire,2013-06-13 10:38:00,
2013-06-13 06:43:00,54.4,54.4,29.77,NNE,22,0.0,0.0,100,0.00,n/a,n/a,-99.99,Henriksen +1-Wire,2013-06-13 10:43:00,
2013-06-13 06:49:00,54.7,54.7,29.77,NNE,23,0.0,0.0,100,0.00,n/a,n/a,-99.99,Henriksen +1-Wire,2013-06-13 10:49:00,
2013-06-13 06:55:00,55.0,55.0,29.77,NNE,33,0.0,0.0,99,0.00,n/a,n/a,-99.99,Henriksen +1-Wire,2013-06-13 10:55:00,
2013-06-13 07:00:00,55.3,55.1,29.77,NE,38,0.0,0.0,99,0.00,n/a,n/a,-99.99,Henriksen +1-Wire,2013-06-13 11:00:00,
2013-06-13 07:05:00,55.7,55.3,29.77,NNE,27,0.0,0.0,98,0.00,n/a,n/a,-99.99,Henriksen +1-Wire,2013-06-13 11:05:00,
2013-06-13 07:10:00,56.0,55.4,29.77,NNE,16,0.0,0.0,98,0.00,n/a,n/a,-99.99,Henriksen +1-Wire,2013-06-13 11:10:00,
2013-06-13 07:16:00,56.3,55.5,29.78,NNE,27,0.0,0.0,97,0.00,n/a,n/a,-99.99,Henriksen +1-Wire,2013-06-13 11:16:00,
2013-06-13 07:21:00,56.6,55.7,29.78,NE,36,0.0,0.0,96,0.00,n/a,n/a,-99.99,Henriksen +1-Wire,2013-06-13 11:21:00,
2013-06-13 07:26:00,56.9,55.8,29.78,NNE,16,0.0,0.0,96,0.00,n/a,n/a,-99.99,Henriksen +1-Wire,2013-06-13 11:26:00,
2013-06-13 07:32:00,57.0,55.7,29.78,NNE,17,1.1,2.4,95,0.00,n/a,n/a,-99.99,Henriksen +1-Wire,2013-06-13 11:32:00,
2013-06-13 07:37:00,57.2,55.6,29.79,NNE,12,0.9,2.4,94,0.00,n/a,n/a,-99.99,Henriksen +1-Wire,2013-06-13 11:37:00,
2013-06-13 07:42:00,57.5,55.6,29.79,NNE,17,1.2,2.4,93,0.00,n/a,n/a,-99.99,Henriksen +1-Wire,2013-06-13 11:42:00,
2013-06-13 07:47:00,57.8,55.7,29.79,North,10,0.7,2.4,92,0.00,n/a,n/a,-99.99,Henriksen +1-Wire,2013-06-13 11:47:00,
2013-06-13 07:52:00,58.2,55.7,29.79,North,353,0.9,2.4,91,0.00,n/a,n/a,-99.99,Henriksen +1-Wire,2013-06-13 11:52:00,
2013-06-13 07:57:00,58.5,55.5,29.79,North,352,0.7,2.4,89,0.00,n/a,n/a,-99.99,Henriksen +1-Wire,2013-06-13 11:57:00,
2013-06-13 08:02:00,58.9,55.7,29.79,ENE,74,0.0,1.6,89,0.00,n/a,n/a,-99.99,Henriksen +1-Wire,2013-06-13 12:02:00,
2013-06-13 08:07:00,59.2,56.0,29.79,East,81,0.0,1.6,88,0.00,n/a,n/a,-99.99,Henriksen +1-Wire,2013-06-13 12:07:00,
2013-06-13 08:12:00,59.8,56.6,29.79,North,351,0.4,1.6,88,0.00,n/a,n/a,-99.99,Henriksen +1-Wire,2013-06-13 12:12:00,
2013-06-13 08:18:00,60.2,56.7,29.78,North,352,0.1,2.4,87,0.00,n/a,n/a,-99.99,Henriksen +1-Wire,2013-06-13 12:18:00,
2013-06-13 08:23:00,60.7,56.8,29.78,ENE,73,0.0,2.4,86,0.00,n/a,n/a,-99.99,Henriksen +1-Wire,2013-06-13 12:23:00,
2013-06-13 08:28:00,61.2,57.2,29.78,ENE,64,0.8,1.7,86,0.00,n/a,n/a,-99.99,Henriksen +1-Wire,2013-06-13 12:28:00,
2013-06-13 08:33:00,61.7,57.7,29.77,ENE,70,1.2,2.3,86,0.00,n/a,n/a,-99.99,Henriksen +1-Wire,2013-06-13 12:33:00,
2013-06-13 08:38:00,62.2,58.0,29.77,ENE,77,0.8,2.3,85,0.00,n/a,n/a,-99.99,Henriksen +1-Wire,2013-06-13 12:38:00,
2013-06-13 08:43:00,63.0,58.0,29.77,SE,133,1.0,2.4,83,0.00,n/a,n/a,-99.99,Henriksen +1-Wire,2013-06-13 12:43:00,
2013-06-13 08:48:00,63.7,58.0,29.77,ESE,113,1.0,2.4,81,0.00,n/a,n/a,-99.99,Henriksen +1-Wire,2013-06-13 12:48:00,
2013-06-13 08:53:00,64.3,58.0,29.77,East,79,1.3,3.9,79,0.00,n/a,n/a,-99.99,Henriksen +1-Wire,2013-06-13 12:53:00,
2013-06-13 08:58:00,64.7,58.0,29.77,South,181,1.8,4.0,78,0.00,n/a,n/a,-99.99,Henriksen +1-Wire,2013-06-13 12:58:00,
2013-06-13 09:03:00,65.1,57.9,29.78,SE,135,1.6,4.7,77,0.00,n/a,n/a,-99.99,Henriksen +1-Wire,2013-06-13 13:03:00,
2013-06-13 09:08:00,65.3,57.9,29.78,SSE,148,2.6,6.8,76,0.00,n/a,n/a,-99.99,Henriksen +1-Wire,2013-06-13 13:08:00,
2013-06-13 09:13:00,65.7,57.3,29.78,SE,135,3.7,6.8,74,0.00,n/a,n/a,-99.99,Henriksen +1-Wire,2013-06-13 13:13:00,
2013-06-13 09:18:00,66.1,56.5,29.78,SE,133,3.7,7.1,70,0.00,n/a,n/a,-99.99,Henriksen +1-Wire,2013-06-13 13:18:00,
2013-06-13 09:24:00,66.6,55.6,29.78,SSE,151,3.9,7.9,67,0.00,n/a,n/a,-99.99,Henriksen +1-Wire,2013-06-13 13:24:00,
2013-06-13 09:29:00,67.0,55.1,29.78,SE,142,1.9,7.9,65,0.00,n/a,n/a,-99.99,Henriksen +1-Wire,2013-06-13 13:29:00,
2013-06-13 09:35:00,67.4,55.3,29.78,SSE,149,2.8,7.9,64,0.00,n/a,n/a,-99.99,Henriksen +1-Wire,2013-06-13 13:35:00,
2013-06-13 09:40:00,67.5,55.6,29.78,SW,222,3.9,7.6,65,0.00,n/a,n/a,-99.99,Henriksen +1-Wire,2013-06-13 13:40:00,
2013-06-13 09:45:00,66.0,55.2,29.78,SW,220,2.8,8.1,67,0.00,n/a,n/a,-99.99,Henriksen +1-Wire,2013-06-13 13:45:00,
2013-06-13 09:50:00,64.7,55.5,29.78,SSW,204,3.2,8.1,72,0.00,n/a,n/a,-99.99,Henriksen +1-Wire,2013-06-13 13:50:00,
2013-06-13 09:55:00,63.8,56.1,29.78,SW,223,1.9,5.9,75,0.00,n/a,n/a,-99.99,Henriksen +1-Wire,2013-06-13 13:55:00,
2013-06-13 10:00:00,62.9,56.4,29.78,South,184,2.4,5.4,79,0.00,n/a,n/a,-99.99,Henriksen +1-Wire,2013-06-13 14:00:00,
2013-06-13 10:06:00,62.1,56.4,29.78,South,189,1.6,4.7,81,0.00,n/a,n/a,-99.99,Henriksen +1-Wire,2013-06-13 14:06:00,
2013-06-13 10:11:00,61.6,56.4,29.78,SSW,207,2.3,6.4,82,0.00,n/a,n/a,-99.99,Henriksen +1-Wire,2013-06-13 14:11:00,
2013-06-13 10:16:00,61.4,56.4,29.78,SSW,203,3.2,6.4,83,0.00,n/a,n/a,-99.99,Henriksen +1-Wire,2013-06-13 14:16:00,
2013-06-13 10:21:00,61.0,56.4,29.78,SSW,201,1.7,5.6,84,0.00,n/a,n/a,-99.99,Henriksen +1-Wire,2013-06-13 14:21:00,
2013-06-13 10:26:00,60.7,56.4,29.78,SSW,207,3.6,5.6,85,0.00,n/a,n/a,-99.99,Henriksen +1-Wire,2013-06-13 14:26:00,
2013-06-13 10:32:00,60.4,56.4,29.78,SW,219,2.0,5.6,86,0.00,n/a,n/a,-99.99,Henriksen +1-Wire,2013-06-13 14:32:00,
2013-06-13 10:37:00,60.1,56.4,29.78,SW,216,2.5,5.5,87,0.00,n/a,n/a,-99.99,Henriksen +1-Wire,2013-06-13 14:37:00,
2013-06-13 10:42:00,59.9,56.4,29.78,SSW,194,2.1,5.5,88,0.00,n/a,n/a,-99.99,Henriksen +1-Wire,2013-06-13 14:42:00,
2013-06-13 10:47:00,59.7,56.4,29.78,South,190,2.7,4.8,88,0.00,n/a,n/a,-99.99,Henriksen +1-Wire,2013-06-13 14:47:00,
2013-06-13 10:52:00,59.7,56.4,29.78,SW,218,2.3,4.8,88,0.00,n/a,n/a,-99.99,Henriksen +1-Wire,2013-06-13 14:52:00,
2013-06-13 10:57:00,59.6,56.4,29.78,SSW,212,2.5,4.8,89,0.00,n/a,n/a,-99.99,Henriksen +1-Wire,2013-06-13 14:57:00,
2013-06-13 11:02:00,59.7,56.5,29.78,SSW,206,3.4,4.8,88,0.00,n/a,n/a,-99.99,Henriksen +1-Wire,2013-06-13 15:02:00,
2013-06-13 11:08:00,59.8,56.6,29.78,SSW,203,3.5,5.7,88,0.00,n/a,n/a,-99.99,Henriksen +1-Wire,2013-06-13 15:08:00,
2013-06-13 11:13:00,59.9,56.6,29.78,SSW,197,2.6,5.7,88,0.00,n/a,n/a,-99.99,Henriksen +1-Wire,2013-06-13 15:13:00,
2013-06-13 11:18:00,60.2,56.7,29.78,SSW,197,2.0,5.4,88,0.00,n/a,n/a,-99.99,Henriksen +1-Wire,2013-06-13 15:18:00,
2013-06-13 11:23:00,60.4,56.7,29.78,SSW,201,2.6,4.7,87,0.00,n/a,n/a,-99.99,Henriksen +1-Wire,2013-06-13 15:23:00,
2013-06-13 11:28:00,60.7,56.7,29.78,SSW,204,2.1,4.7,86,0.00,n/a,n/a,-99.99,Henriksen +1-Wire,2013-06-13 15:28:00,
2013-06-13 11:33:00,60.8,56.6,29.78,SSW,199,2.0,5.4,86,0.00,n/a,n/a,-99.99,Henriksen +1-Wire,2013-06-13 15:33:00,
2013-06-13 11:39:00,60.8,56.6,29.78,SSW,193,1.7,4.0,85,0.00,n/a,n/a,-99.99,Henriksen +1-Wire,2013-06-13 15:39:00,
2013-06-13 11:45:00,60.6,56.3,29.77,SW,221,2.5,4.0,85,0.00,n/a,n/a,-99.99,Henriksen +1-Wire,2013-06-13 15:45:00,
2013-06-13 11:50:00,60.3,56.0,29.77,SW,214,2.2,4.7,85,0.00,n/a,n/a,-99.99,Henriksen +1-Wire,2013-06-13 15:50:00,
2013-06-13 11:56:00,60.3,56.0,29.77,SSW,200,2.6,4.7,85,0.00,n/a,n/a,-99.99,Henriksen +1-Wire,2013-06-13 15:56:00,
2013-06-13 12:01:00,60.3,56.1,29.77,SSW,211,1.5,4.8,85,0.00,n/a,n/a,-99.99,Henriksen +1-Wire,2013-06-13 16:01:00,
2013-06-13 12:06:00,60.3,56.0,29.77,SSW,200,1.8,4.8,85,0.00,n/a,n/a,-99.99,Henriksen +1-Wire,2013-06-13 16:06:00,
2013-06-13 12:11:00,60.2,55.9,29.77,SSW,210,2.8,4.8,85,0.00,n/a,n/a,-99.99,Henriksen +1-Wire,2013-06-13 16:11:00,
2013-06-13 12:16:00,60.2,55.8,29.77,SSW,211,3.0,4.8,85,0.00,n/a,n/a,-99.99,Henriksen +1-Wire,2013-06-13 16:16:00,
2013-06-13 12:22:00,60.1,55.8,29.77,South,187,1.8,4.8,85,0.00,n/a,n/a,-99.99,Henriksen +1-Wire,2013-06-13 16:22:00,
2013-06-13 12:27:00,60.3,55.9,29.77,SSW,192,2.7,4.8,85,0.00,n/a,n/a,-99.99,Henriksen +1-Wire,2013-06-13 16:27:00,
2013-06-13 12:32:00,60.4,56.0,29.77,SSW,193,2.9,4.8,85,0.00,n/a,n/a,-99.99,Henriksen +1-Wire,2013-06-13 16:32:00,
2013-06-13 12:37:00,60.4,56.0,29.77,SSW,197,2.7,4.8,85,0.00,n/a,n/a,-99.99,Henriksen +1-Wire,2013-06-13 16:37:00,
2013-06-13 12:42:00,60.2,55.7,29.77,SSW,201,1.7,4.1,85,0.00,n/a,n/a,-99.99,Henriksen +1-Wire,2013-06-13 16:42:00,
2013-06-13 12:47:00,60.1,55.6,29.77,SSW,199,2.6,4.8,84,0.00,n/a,n/a,-99.99,Henriksen +1-Wire,2013-06-13 16:47:00,
2013-06-13 12:52:00,60.2,55.7,29.77,SSW,192,2.2,4.8,85,0.00,n/a,n/a,-99.99,Henriksen +1-Wire,2013-06-13 16:52:00,
2013-06-13 12:57:00,60.2,55.8,29.77,SSW,195,2.5,4.0,85,0.00,n/a,n/a,-99.99,Henriksen +1-Wire,2013-06-13 16:57:00,
2013-06-13 13:02:00,60.3,55.8,29.77,South,190,3.1,5.9,85,0.00,n/a,n/a,-99.99,Henriksen +1-Wire,2013-06-13 17:02:00,
2013-06-13 13:07:00,60.3,55.8,29.77,SSW,192,2.2,5.9,84,0.00,n/a,n/a,-99.99,Henriksen +1-Wire,2013-06-13 17:07:00,
2013-06-13 13:12:00,60.3,55.7,29.77,SSW,192,2.3,4.8,84,0.00,n/a,n/a,-99.99,Henriksen +1-Wire,2013-06-13 17:12:00,
2013-06-13 13:17:00,60.4,55.8,29.77,SSW,192,2.9,4.7,84,0.00,n/a,n/a,-99.99,Henriksen +1-Wire,2013-06-13 17:17:00,
2013-06-13 13:23:00,60.6,55.8,29.76,SSW,207,3.0,4.7,84,0.00,n/a,n/a,-99.99,Henriksen +1-Wire,2013-06-13 17:23:00,
2013-06-13 13:28:00,60.5,55.7,29.76,SSW,208,2.2,4.7,83,0.00,n/a,n/a,-99.99,Henriksen +1-Wire,2013-06-13 17:28:00,
2013-06-13 13:33:00,60.6,55.6,29.76,SSW,201,2.5,4.7,83,0.00,n/a,n/a,-99.99,Henriksen +1-Wire,2013-06-13 17:33:00,
2013-06-13 13:38:00,60.6,55.8,29.76,SSW,202,2.4,4.7,84,0.00,n/a,n/a,-99.99,Henriksen +1-Wire,2013-06-13 17:38:00,
2013-06-13 13:43:00,60.7,56.0,29.76,SSW,201,2.7,4.7,84,0.00,n/a,n/a,-99.99,Henriksen +1-Wire,2013-06-13 17:43:00,
2013-06-13 13:48:00,60.7,56.1,29.76,SSW,200,2.4,4.7,84,0.00,n/a,n/a,-99.99,Henriksen +1-Wire,2013-06-13 17:48:00,
2013-06-13 13:53:00,60.7,56.1,29.76,SSW,208,2.3,4.8,84,0.00,n/a,n/a,-99.99,Henriksen +1-Wire,2013-06-13 17:53:00,
2013-06-13 13:58:00,60.6,56.0,29.76,SSW,203,2.1,4.8,84,0.00,n/a,n/a,-99.99,Henriksen +1-Wire,2013-06-13 17:58:00,
2013-06-13 14:04:00,60.4,55.9,29.75,SSW,193,2.7,4.8,84,0.00,n/a,n/a,-99.99,Henriksen +1-Wire,2013-06-13 18:04:00,
2013-06-13 14:09:00,60.2,55.7,29.75,SSW,195,2.4,4.8,84,0.00,n/a,n/a,-99.99,Henriksen +1-Wire,2013-06-13 18:09:00,
2013-06-13 14:15:00,60.0,55.7,29.74,SSW,196,1.7,4.7,85,0.00,n/a,n/a,-99.99,Henriksen +1-Wire,2013-06-13 18:15:00,
2013-06-13 14:20:00,59.8,55.7,29.74,SSW,203,2.2,4.7,86,0.00,n/a,n/a,-99.99,Henriksen +1-Wire,2013-06-13 18:20:00,
2013-06-13 14:25:00,59.6,55.7,29.73,SSW,197,1.3,4.0,86,0.00,n/a,n/a,-99.99,Henriksen +1-Wire,2013-06-13 18:25:00,
2013-06-13 14:30:00,59.4,55.8,29.73,SW,225,2.2,3.9,87,0.00,n/a,n/a,-99.99,Henriksen +1-Wire,2013-06-13 18:30:00,
2013-06-13 14:35:00,59.2,55.8,29.73,SSW,209,1.8,3.3,88,0.00,n/a,n/a,-99.99,Henriksen +1-Wire,2013-06-13 18:35:00,
2013-06-13 14:40:00,59.1,55.9,29.73,SSW,199,2.1,3.3,89,0.00,n/a,n/a,-99.99,Henriksen +1-Wire,2013-06-13 18:40:00,
2013-06-13 14:46:00,58.8,55.9,29.72,SSW,204,2.3,4.0,90,0.00,n/a,n/a,-99.99,Henriksen +1-Wire,2013-06-13 18:46:00,
2013-06-13 14:51:00,58.6,56.1,29.73,SSW,209,2.2,4.0,91,0.00,n/a,n/a,-99.99,Henriksen +1-Wire,2013-06-13 18:51:00,
2013-06-13 14:56:00,58.4,56.3,29.73,SSW,211,2.5,4.2,92,0.00,n/a,n/a,-99.99,Henriksen +1-Wire,2013-06-13 18:56:00,
2013-06-13 15:01:00,58.2,56.5,29.73,SSW,195,3.3,5.5,93,0.01,n/a,n/a,-99.99,Henriksen +1-Wire,2013-06-13 19:01:00,
2013-06-13 15:06:00,58.1,56.7,29.73,SSW,196,3.6,6.3,95,0.01,n/a,n/a,-99.99,Henriksen +1-Wire,2013-06-13 19:06:00,
2013-06-13 15:11:00,58.1,56.9,29.73,South,190,1.7,6.3,95,0.01,n/a,n/a,-99.99,Henriksen +1-Wire,2013-06-13 19:11:00,
2013-06-13 15:16:00,58.1,57.0,29.73,SSW,198,0.7,5.9,96,0.01,n/a,n/a,-99.99,Henriksen +1-Wire,2013-06-13 19:16:00,
2013-06-13 15:21:00,58.1,57.2,29.73,SSW,203,2.7,4.7,96,0.01,n/a,n/a,-99.99,Henriksen +1-Wire,2013-06-13 19:21:00,
2013-06-13 15:26:00,58.2,57.3,29.73,SSW,199,2.2,4.7,96,0.01,n/a,n/a,-99.99,Henriksen +1-Wire,2013-06-13 19:26:00,
2013-06-13 15:32:00,58.4,57.4,29.73,SSW,204,1.8,4.1,96,0.01,n/a,n/a,-99.99,Henriksen +1-Wire,2013-06-13 19:32:00,
2013-06-13 15:37:00,58.4,57.4,29.73,SSW,204,1.5,4.7,96,0.01,n/a,n/a,-99.99,Henriksen +1-Wire,2013-06-13 19:37:00,
2013-06-13 15:43:00,58.5,57.4,29.73,SSW,203,1.5,4.7,96,0.02,n/a,n/a,-99.99,Henriksen +1-Wire,2013-06-13 19:43:00,
2013-06-13 15:48:00,58.6,57.4,29.73,SSW,203,2.4,4.7,96,0.02,n/a,n/a,-99.99,Henriksen +1-Wire,2013-06-13 19:48:00,
2013-06-13 15:53:00,58.6,57.5,29.73,SW,215,1.9,5.0,96,0.02,n/a,n/a,-99.99,Henriksen +1-Wire,2013-06-13 19:53:00,
2013-06-13 15:58:00,58.8,57.7,29.73,SSW,203,2.4,5.0,96,0.01,n/a,n/a,-99.99,Henriksen +1-Wire,2013-06-13 19:58:00,
2013-06-13 16:03:00,58.8,57.8,29.73,SSW,198,1.8,3.6,96,0.01,n/a,n/a,-99.99,Henriksen +1-Wire,2013-06-13 20:03:00,
2013-06-13 16:08:00,58.8,57.8,29.74,SSW,201,2.6,7.1,96,0.01,n/a,n/a,-99.99,Henriksen +1-Wire,2013-06-13 20:08:00,
2013-06-13 16:13:00,58.8,57.8,29.74,SSW,202,4.3,7.1,96,0.01,n/a,n/a,-99.99,Henriksen +1-Wire,2013-06-13 20:13:00,
2013-06-13 16:18:00,58.7,57.7,29.73,SSW,201,3.4,7.1,96,0.01,n/a,n/a,-99.99,Henriksen +1-Wire,2013-06-13 20:18:00,
2013-06-13 16:24:00,58.6,57.6,29.74,SSW,203,2.8,6.3,96,0.01,n/a,n/a,-99.99,Henriksen +1-Wire,2013-06-13 20:24:00,
2013-06-13 16:29:00,58.5,57.6,29.74,SSW,204,2.8,6.3,96,0.01,n/a,n/a,-99.99,Henriksen +1-Wire,2013-06-13 20:29:00,
2013-06-13 16:35:00,58.4,57.7,29.73,SSW,205,3.0,6.3,97,0.01,n/a,n/a,-99.99,Henriksen +1-Wire,2013-06-13 20:35:00,
2013-06-13 16:40:00,58.3,57.8,29.74,SSW,197,2.4,8.7,98,0.00,n/a,n/a,-99.99,Henriksen +1-Wire,2013-06-13 20:40:00,
2013-06-13 16:45:00,58.3,57.8,29.74,SSW,205,2.6,8.7,98,0.01,n/a,n/a,-99.99,Henriksen +1-Wire,2013-06-13 20:45:00,
2013-06-13 16:50:00,58.3,58.0,29.74,SSW,205,2.8,5.9,99,0.01,n/a,n/a,-99.99,Henriksen +1-Wire,2013-06-13 20:50:00,
2013-06-13 16:56:00,58.3,58.1,29.74,SSW,203,2.1,4.2,99,0.01,n/a,n/a,-99.99,Henriksen +1-Wire,2013-06-13 20:56:00,
2013-06-13 17:01:00,58.3,58.2,29.74,SSW,193,3.0,5.5,99,0.01,n/a,n/a,-99.99,Henriksen +1-Wire,2013-06-13 21:01:00,
2013-06-13 19:03:00,56.6,56.6,29.73,East,93,0.0,1.2,100,0.00,n/a,n/a,-99.99,Henriksen +1-Wire,2013-06-13 23:03:00,
2013-06-13 19:08:00,56.5,56.5,29.73,East,82,0.4,1.6,100,0.00,n/a,n/a,-99.99,Henriksen +1-Wire,2013-06-13 23:08:00,
2013-06-13 19:13:00,56.4,56.4,29.73,ESE,102,0.2,2.4,100,0.00,n/a,n/a,-99.99,Henriksen +1-Wire,2013-06-13 23:13:00,
2013-06-13 19:18:00,56.4,56.4,29.73,East,90,0.4,2.4,100,0.00,n/a,n/a,-99.99,Henriksen +1-Wire,2013-06-13 23:18:00,
2013-06-13 19:24:00,56.3,56.3,29.73,WNW,285,0.1,2.5,100,0.00,n/a,n/a,-99.99,Henriksen +1-Wire,2013-06-13 23:24:00,
2013-06-13 19:29:00,56.2,56.2,29.73,West,268,1.0,3.2,100,0.00,n/a,n/a,-99.99,Henriksen +1-Wire,2013-06-13 23:29:00,
2013-06-13 19:35:00,56.1,56.1,29.73,ENE,65,0.2,3.2,100,0.01,n/a,n/a,-99.99,Henriksen +1-Wire,2013-06-13 23:35:00,
2013-06-13 19:40:00,56.1,56.1,29.73,East,83,0.0,1.6,100,0.01,n/a,n/a,-99.99,Henriksen +1-Wire,2013-06-13 23:40:00,
2013-06-13 19:45:00,56.0,56.0,29.73,East,98,0.0,1.6,100,0.01,n/a,n/a,-99.99,Henriksen +1-Wire,2013-06-13 23:45:00,
2013-06-13 19:50:00,55.9,55.9,29.73,NE,41,0.3,1.0,100,0.01,n/a,n/a,-99.99,Henriksen +1-Wire,2013-06-13 23:50:00,
2013-06-13 19:55:00,55.9,55.9,29.73,NE,50,0.0,1.0,100,0.01,n/a,n/a,-99.99,Henriksen +1-Wire,2013-06-13 23:55:00,
2013-06-13 20:00:00,55.9,55.9,29.73,South,190,0.0,0.0,100,0.01,n/a,n/a,-99.99,Henriksen +1-Wire,2013-06-14 00:00:00,
2013-06-13 20:06:00,55.8,55.8,29.73,East,90,0.0,0.0,100,0.02,n/a,n/a,-99.99,Henriksen +1-Wire,2013-06-14 00:06:00,
2013-06-13 20:11:00,55.8,55.8,29.74,ESE,106,0.0,0.0,100,0.02,n/a,n/a,-99.99,Henriksen +1-Wire,2013-06-14 00:11:00,
2013-06-13 20:16:00,55.7,55.7,29.74,East,85,0.0,0.0,100,0.02,n/a,n/a,-99.99,Henriksen +1-Wire,2013-06-14 00:16:00,
2013-06-13 20:22:00,55.7,55.7,29.74,ENE,69,0.0,0.0,100,0.02,n/a,n/a,-99.99,Henriksen +1-Wire,2013-06-14 00:22:00,
2013-06-13 20:27:00,55.7,55.7,29.73,ENE,63,0.0,0.0,100,0.02,n/a,n/a,-99.99,Henriksen +1-Wire,2013-06-14 00:27:00,
2013-06-13 20:32:00,55.7,55.7,29.73,SE,143,0.0,0.0,100,0.02,n/a,n/a,-99.99,Henriksen +1-Wire,2013-06-14 00:32:00,
2013-06-13 20:37:00,55.7,55.7,29.73,South,172,0.0,0.0,100,0.02,n/a,n/a,-99.99,Henriksen +1-Wire,2013-06-14 00:37:00,
2013-06-13 20:42:00,55.7,55.7,29.73,NE,45,0.0,0.0,100,0.02,n/a,n/a,-99.99,Henriksen +1-Wire,2013-06-14 00:42:00,
2013-06-13 20:47:00,55.7,55.7,29.73,NE,49,0.0,0.0,100,0.03,n/a,n/a,-99.99,Henriksen +1-Wire,2013-06-14 00:47:00,
2013-06-13 20:52:00,55.6,55.6,29.73,NE,48,0.0,0.0,100,0.03,n/a,n/a,-99.99,Henriksen +1-Wire,2013-06-14 00:52:00,
2013-06-13 20:57:00,55.6,55.6,29.73,NE,38,0.0,0.0,100,0.03,n/a,n/a,-99.99,Henriksen +1-Wire,2013-06-14 00:57:00,
2013-06-13 21:02:00,55.6,55.6,29.74,NE,47,0.0,0.0,100,0.03,n/a,n/a,-99.99,Henriksen +1-Wire,2013-06-14 01:02:00,
2013-06-13 21:07:00,55.6,55.6,29.74,NE,51,0.0,0.0,100,0.02,n/a,n/a,-99.99,Henriksen +1-Wire,2013-06-14 01:07:00,
2013-06-13 21:12:00,55.6,55.6,29.73,ESE,106,0.0,0.0,100,0.02,n/a,n/a,-99.99,Henriksen +1-Wire,2013-06-14 01:12:00,
2013-06-13 21:17:00,55.6,55.6,29.73,ESE,118,0.0,0.0,100,0.02,n/a,n/a,-99.99,Henriksen +1-Wire,2013-06-14 01:17:00,
2013-06-13 21:22:00,55.5,55.5,29.73,ESE,108,0.0,0.0,100,0.02,n/a,n/a,-99.99,Henriksen +1-Wire,2013-06-14 01:22:00,
2013-06-13 21:27:00,55.5,55.5,29.73,East,93,0.0,0.0,100,0.02,n/a,n/a,-99.99,Henriksen +1-Wire,2013-06-14 01:27:00,
2013-06-13 21:32:00,55.5,55.5,29.73,East,85,0.0,0.0,100,0.02,n/a,n/a,-99.99,Henriksen +1-Wire,2013-06-14 01:32:00,
2013-06-13 21:37:00,55.5,55.5,29.73,East,97,0.0,0.0,100,0.01,n/a,n/a,-99.99,Henriksen +1-Wire,2013-06-14 01:37:00,
2013-06-13 21:42:00,55.4,55.4,29.73,East,79,0.0,0.0,100,0.01,n/a,n/a,-99.99,Henriksen +1-Wire,2013-06-14 01:42:00,
2013-06-13 21:47:00,55.4,55.4,29.73,East,94,0.0,0.0,100,0.00,n/a,n/a,-99.99,Henriksen +1-Wire,2013-06-14 01:47:00,
2013-06-13 21:52:00,55.3,55.3,29.73,SE,128,0.0,0.0,100,0.00,n/a,n/a,-99.99,Henriksen +1-Wire,2013-06-14 01:52:00,
2013-06-13 21:57:00,55.3,55.3,29.73,ESE,109,0.0,0.0,100,0.01,n/a,n/a,-99.99,Henriksen +1-Wire,2013-06-14 01:57:00,
2013-06-13 22:02:00,55.3,55.3,29.73,SE,139,0.0,0.0,100,0.01,n/a,n/a,-99.99,Henriksen +1-Wire,2013-06-14 02:02:00,
2013-06-13 22:07:00,55.3,55.3,29.73,SSE,161,0.0,0.0,100,0.01,n/a,n/a,-99.99,Henriksen +1-Wire,2013-06-14 02:07:00,
2013-06-13 22:12:00,55.2,55.2,29.73,SE,135,0.3,1.7,100,0.01,n/a,n/a,-99.99,Henriksen +1-Wire,2013-06-14 02:12:00,
2013-06-13 22:18:00,55.2,55.2,29.73,ESE,123,0.0,1.7,100,0.02,n/a,n/a,-99.99,Henriksen +1-Wire,2013-06-14 02:18:00,
2013-06-13 22:23:00,55.2,55.2,29.73,SE,134,0.2,1.6,100,0.02,n/a,n/a,-99.99,Henriksen +1-Wire,2013-06-14 02:23:00,
2013-06-13 22:28:00,55.2,55.2,29.73,SE,131,0.0,1.6,100,0.02,n/a,n/a,-99.99,Henriksen +1-Wire,2013-06-14 02:28:00,
2013-06-13 22:33:00,55.2,55.2,29.73,East,90,0.0,0.8,100,0.02,n/a,n/a,-99.99,Henriksen +1-Wire,2013-06-14 02:33:00,
2013-06-13 22:38:00,55.2,55.2,29.73,East,94,0.1,1.6,100,0.02,n/a,n/a,-99.99,Henriksen +1-Wire,2013-06-14 02:38:00,
2013-06-13 22:44:00,55.2,55.2,29.73,SE,126,0.0,1.6,100,0.03,n/a,n/a,-99.99,Henriksen +1-Wire,2013-06-14 02:44:00,
2013-06-13 22:49:00,55.2,55.2,29.73,SE,124,0.0,0.8,100,0.03,n/a,n/a,-99.99,Henriksen +1-Wire,2013-06-14 02:49:00,
2013-06-13 22:54:00,55.2,55.2,29.73,SE,137,0.0,1.3,100,0.02,n/a,n/a,-99.99,Henriksen +1-Wire,2013-06-14 02:54:00,
2013-06-13 22:59:00,55.2,55.2,29.73,SE,136,0.1,1.3,100,0.03,n/a,n/a,-99.99,Henriksen +1-Wire,2013-06-14 02:59:00,
2013-06-13 23:05:00,55.2,55.2,29.72,SE,133,0.0,0.8,100,0.03,n/a,n/a,-99.99,Henriksen +1-Wire,2013-06-14 03:05:00,
2013-06-13 23:10:00,55.2,55.2,29.72,SE,126,0.0,0.8,100,0.03,n/a,n/a,-99.99,Henriksen +1-Wire,2013-06-14 03:10:00,
2013-06-13 23:15:00,55.2,55.2,29.72,SE,128,0.0,0.0,100,0.02,n/a,n/a,-99.99,Henriksen +1-Wire,2013-06-14 03:15:00,
2013-06-13 23:20:00,55.2,55.2,29.72,East,79,0.0,0.0,100,0.02,n/a,n/a,-99.99,Henriksen +1-Wire,2013-06-14 03:20:00,
2013-06-13 23:25:00,55.2,55.2,29.71,East,86,0.0,0.8,100,0.03,n/a,n/a,-99.99,Henriksen +1-Wire,2013-06-14 03:25:00,
2013-06-13 23:30:00,55.2,55.2,29.71,ENE,77,0.0,0.8,100,0.03,n/a,n/a,-99.99,Henriksen +1-Wire,2013-06-14 03:30:00,
2013-06-13 23:35:00,55.2,55.2,29.71,East,91,0.0,0.8,100,0.03,n/a,n/a,-99.99,Henriksen +1-Wire,2013-06-14 03:35:00,
2013-06-13 23:40:00,55.1,55.1,29.71,East,91,0.0,0.8,100,0.03,n/a,n/a,-99.99,Henriksen +1-Wire,2013-06-14 03:40:00,
2013-06-13 23:45:00,55.1,55.1,29.71,NE,48,0.0,0.8,100,0.03,n/a,n/a,-99.99,Henriksen +1-Wire,2013-06-14 03:45:00,
2013-06-13 23:50:00,55.0,55.0,29.71,South,169,0.9,2.4,100,0.03,n/a,n/a,-99.99,Henriksen +1-Wire,2013-06-14 03:50:00,
2013-06-13 23:55:00,55.0,55.0,29.71,SE,125,0.1,3.2,100,0.03,n/a,n/a,-99.99,Henriksen +1-Wire,2013-06-14 03:55:00,